JST525 YMML-YSSY
Flight info
| Callsign | JST525 |
|---|---|
| Flight time | N/A |
| Altitude | 37000 |
| Route | DOSEL2/34 DOSEL Y59 RIVET |
| Aircraft | A21N/M-SDE2E3FGHIRWXY/LB1 |
Departure
| Time | 2026-04-30 09:18 |
|---|---|
| Airport | Melbourne Airport (YMML) |
Arrival
| Time | N/A |
|---|---|
| Airport | Sydney Kingsford Smith International Airport (YSSY) |
| Time | Latitude | Longitude | Altitude | Speed | Heading |
|---|---|---|---|---|---|
| 2026-04-30 09:06 | -37.67355 | 144.84631 | 442 ft | 0 kts | 351° |
| 2026-04-30 09:11 | -37.67357 | 144.84633 | 442 ft | 2 kts | 351° |
| 2026-04-30 09:11 | -37.67372 | 144.84636 | 442 ft | 2 kts | 351° |
| 2026-04-30 09:11 | -37.67387 | 144.84639 | 442 ft | 2 kts | 352° |
| 2026-04-30 09:11 | -37.67402 | 144.84641 | 442 ft | 2 kts | 351° |
| 2026-04-30 09:12 | -37.67411 | 144.84644 | 442 ft | 1 kts | 352° |
| 2026-04-30 09:12 | -37.67426 | 144.84650 | 442 ft | 2 kts | 322° |
| 2026-04-30 09:12 | -37.67436 | 144.84663 | 442 ft | 2 kts | 298° |
| 2026-04-30 09:12 | -37.67440 | 144.84682 | 442 ft | 2 kts | 273° |
| 2026-04-30 09:13 | -37.67440 | 144.84691 | 442 ft | 1 kts | 258° |
| 2026-04-30 09:13 | -37.67439 | 144.84697 | 442 ft | 0 kts | 260° |
| 2026-04-30 09:15 | -37.67440 | 144.84688 | 442 ft | 2 kts | 261° |
| 2026-04-30 09:15 | -37.67445 | 144.84656 | 442 ft | 6 kts | 261° |
| 2026-04-30 09:15 | -37.67453 | 144.84569 | 442 ft | 13 kts | 262° |
| 2026-04-30 09:15 | -37.67469 | 144.84453 | 442 ft | 13 kts | 260° |
| 2026-04-30 09:16 | -37.67497 | 144.84340 | 442 ft | 13 kts | 216° |
| 2026-04-30 09:16 | -37.67589 | 144.84345 | 442 ft | 13 kts | 171° |
| 2026-04-30 09:16 | -37.67683 | 144.84361 | 442 ft | 13 kts | 171° |
| 2026-04-30 09:16 | -37.67778 | 144.84364 | 442 ft | 13 kts | 195° |
| 2026-04-30 09:17 | -37.67849 | 144.84286 | 442 ft | 14 kts | 245° |
| 2026-04-30 09:17 | -37.67870 | 144.84163 | 442 ft | 14 kts | 261° |
| 2026-04-30 09:17 | -37.67881 | 144.84061 | 442 ft | 11 kts | 263° |
| 2026-04-30 09:17 | -37.67868 | 144.83971 | 442 ft | 10 kts | 323° |
| 2026-04-30 09:18 | -37.67765 | 144.83945 | 442 ft | 37 kts | 351° |
| 2026-04-30 09:18 | -37.67197 | 144.83849 | 442 ft | 123 kts | 350° |
| 2026-04-30 09:18 | -37.66112 | 144.83644 | 530 ft | 181 kts | 351° |
| 2026-04-30 09:18 | -37.64882 | 144.83385 | 1303 ft | 183 kts | 352° |
| 2026-04-30 09:19 | -37.63634 | 144.83131 | 2229 ft | 185 kts | 352° |
| 2026-04-30 09:19 | -37.62353 | 144.82884 | 2992 ft | 194 kts | 352° |
| 2026-04-30 09:19 | -37.60966 | 144.82614 | 3612 ft | 212 kts | 351° |
| 2026-04-30 09:19 | -37.59417 | 144.82454 | 4153 ft | 236 kts | 7° |
| 2026-04-30 09:20 | -37.57907 | 144.83362 | 4791 ft | 257 kts | 40° |
| 2026-04-30 09:20 | -37.56676 | 144.85031 | 5687 ft | 266 kts | 48° |
| 2026-04-30 09:20 | -37.55486 | 144.86824 | 6663 ft | 271 kts | 48° |
| 2026-04-30 09:20 | -37.54266 | 144.88626 | 7639 ft | 274 kts | 47° |